sensor_id;sensor_type;location;lat;lon;timestamp;temperature;humidity
16388;DHT22;8303;53.446;9.988;2023-03-23T05:45:54;10.70;1.00
16388;DHT22;8303;53.446;9.988;2023-03-23T05:48:21;10.70;1.00
16388;DHT22;8303;53.446;9.988;2023-03-23T05:50:48;10.70;1.00
16388;DHT22;8303;53.446;9.988;2023-03-23T05:53:16;10.70;1.00
16388;DHT22;8303;53.446;9.988;2023-03-23T05:56:00;10.70;1.00
16388;DHT22;8303;53.446;9.988;2023-03-23T05:58:27;10.70;1.00
16388;DHT22;8303;53.446;9.988;2023-03-23T06:00:54;10.70;1.00
16388;DHT22;8303;53.446;9.988;2023-03-23T06:03:20;10.70;1.00
16388;DHT22;8303;53.446;9.988;2023-03-23T06:05:48;10.70;1.00
16388;DHT22;8303;53.446;9.988;2023-03-23T06:08:15;10.70;1.00
16388;DHT22;8303;53.446;9.988;2023-03-23T06:10:43;10.60;1.00
16388;DHT22;8303;53.446;9.988;2023-03-23T06:13:11;10.70;1.00
16388;DHT22;8303;53.446;9.988;2023-03-23T06:15:38;10.60;1.00
16388;DHT22;8303;53.446;9.988;2023-03-23T06:18:05;10.60;1.00
16388;DHT22;8303;53.446;9.988;2023-03-23T06:20:32;10.80;1.00
16388;DHT22;8303;53.446;9.988;2023-03-23T06:23:00;11.10;1.00
16388;DHT22;8303;53.446;9.988;2023-03-23T06:25:28;11.30;1.00
16388;DHT22;8303;53.446;9.988;2023-03-23T06:27:55;11.20;1.00
16388;DHT22;8303;53.446;9.988;2023-03-23T06:30:24;11.10;1.00
16388;DHT22;8303;53.446;9.988;2023-03-23T06:32:52;11.10;1.00
16388;DHT22;8303;53.446;9.988;2023-03-23T06:35:19;11.00;1.00
16388;DHT22;8303;53.446;9.988;2023-03-23T06:37:46;10.90;1.00
16388;DHT22;8303;53.446;9.988;2023-03-23T06:40:13;11.00;1.00
16388;DHT22;8303;53.446;9.988;2023-03-23T06:42:44;11.00;1.00
16388;DHT22;8303;53.446;9.988;2023-03-23T06:45:11;11.00;1.00
16388;DHT22;8303;53.446;9.988;2023-03-23T06:47:39;11.10;1.00
16388;DHT22;8303;53.446;9.988;2023-03-23T06:50:07;11.20;1.00
16388;DHT22;8303;53.446;9.988;2023-03-23T06:52:35;11.30;1.00
16388;DHT22;8303;53.446;9.988;2023-03-23T06:55:02;11.40;1.00
16388;DHT22;8303;53.446;9.988;2023-03-23T06:57:29;11.30;1.00
16388;DHT22;8303;53.446;9.988;2023-03-23T06:59:56;11.30;1.00
16388;DHT22;8303;53.446;9.988;2023-03-23T07:02:23;11.30;1.00
16388;DHT22;8303;53.446;9.988;2023-03-23T07:04:52;11.40;1.00
16388;DHT22;8303;53.446;9.988;2023-03-23T07:07:19;11.50;1.00
16388;DHT22;8303;53.446;9.988;2023-03-23T07:09:46;11.60;1.00
16388;DHT22;8303;53.446;9.988;2023-03-23T07:12:13;11.60;1.00
16388;DHT22;8303;53.446;9.988;2023-03-23T07:14:41;11.70;1.00
16388;DHT22;8303;53.446;9.988;2023-03-23T07:17:08;11.80;1.00
16388;DHT22;8303;53.446;9.988;2023-03-23T07:19:35;11.90;1.00
16388;DHT22;8303;53.446;9.988;2023-03-23T07:22:06;12.10;1.00
16388;DHT22;8303;53.446;9.988;2023-03-23T07:24:33;12.20;1.00
16388;DHT22;8303;53.446;9.988;2023-03-23T07:27:01;12.30;1.00
16388;DHT22;8303;53.446;9.988;2023-03-23T07:29:28;12.50;1.00
16388;DHT22;8303;53.446;9.988;2023-03-23T07:31:55;12.60;99.90
16388;DHT22;8303;53.446;9.988;2023-03-23T07:34:22;12.70;99.90
16388;DHT22;8303;53.446;9.988;2023-03-23T07:36:49;12.80;99.90
16388;DHT22;8303;53.446;9.988;2023-03-23T07:39:17;12.70;99.90
16388;DHT22;8303;53.446;9.988;2023-03-23T07:41:45;12.60;99.90
16388;DHT22;8303;53.446;9.988;2023-03-23T07:44:12;12.60;99.90
16388;DHT22;8303;53.446;9.988;2023-03-23T07:46:39;12.60;99.90
16388;DHT22;8303;53.446;9.988;2023-03-23T07:49:07;12.70;99.90
16388;DHT22;8303;53.446;9.988;2023-03-23T07:51:34;12.70;99.90
16388;DHT22;8303;53.446;9.988;2023-03-23T07:54:04;12.60;99.90
16388;DHT22;8303;53.446;9.988;2023-03-23T07:56:34;12.70;99.90
16388;DHT22;8303;53.446;9.988;2023-03-23T07:59:01;12.70;99.90
16388;DHT22;8303;53.446;9.988;2023-03-23T08:01:30;12.60;99.90
16388;DHT22;8303;53.446;9.988;2023-03-23T08:03:57;12.80;99.90
16388;DHT22;8303;53.446;9.988;2023-03-23T08:06:25;12.80;99.90
16388;DHT22;8303;53.446;9.988;2023-03-23T08:08:52;12.90;99.90
16388;DHT22;8303;53.446;9.988;2023-03-23T08:11:20;12.80;99.90
16388;DHT22;8303;53.446;9.988;2023-03-23T08:13:49;12.70;99.90
16388;DHT22;8303;53.446;9.988;2023-03-23T08:16:15;12.60;99.90
16388;DHT22;8303;53.446;9.988;2023-03-23T08:18:44;12.40;1.00
16388;DHT22;8303;53.446;9.988;2023-03-23T08:21:12;12.30;1.00
16388;DHT22;8303;53.446;9.988;2023-03-23T08:23:39;12.30;1.00
16388;DHT22;8303;53.446;9.988;2023-03-23T08:26:06;12.40;1.00
16388;DHT22;8303;53.446;9.988;2023-03-23T08:28:34;12.30;1.00
16388;DHT22;8303;53.446;9.988;2023-03-23T08:31:07;12.30;1.00
16388;DHT22;8303;53.446;9.988;2023-03-23T08:33:36;12.20;1.00
16388;DHT22;8303;53.446;9.988;2023-03-23T08:36:03;12.20;1.00
16388;DHT22;8303;53.446;9.988;2023-03-23T08:38:31;12.20;1.00
16388;DHT22;8303;53.446;9.988;2023-03-23T08:40:58;12.10;1.00
16388;DHT22;8303;53.446;9.988;2023-03-23T08:43:25;12.10;1.00
16388;DHT22;8303;53.446;9.988;2023-03-23T08:45:52;12.10;1.00
16388;DHT22;8303;53.446;9.988;2023-03-23T08:48:22;12.20;1.00
16388;DHT22;8303;53.446;9.988;2023-03-23T08:50:49;12.20;1.00
16388;DHT22;8303;53.446;9.988;2023-03-23T08:53:17;12.20;1.00
16388;DHT22;8303;53.446;9.988;2023-03-23T08:55:46;12.10;99.90
16388;DHT22;8303;53.446;9.988;2023-03-23T08:58:13;12.10;99.90
16388;DHT22;8303;53.446;9.988;2023-03-23T09:00:40;12.10;99.90
16388;DHT22;8303;53.446;9.988;2023-03-23T09:03:07;12.10;99.90
16388;DHT22;8303;53.446;9.988;2023-03-23T09:05:35;12.10;99.90
16388;DHT22;8303;53.446;9.988;2023-03-23T09:08:04;12.10;99.90
16388;DHT22;8303;53.446;9.988;2023-03-23T09:10:31;12.20;99.90
16388;DHT22;8303;53.446;9.988;2023-03-23T09:12:58;12.30;99.90
16388;DHT22;8303;53.446;9.988;2023-03-23T09:15:25;12.40;99.90
16388;DHT22;8303;53.446;9.988;2023-03-23T09:17:53;12.40;99.90
16388;DHT22;8303;53.446;9.988;2023-03-23T09:20:23;12.50;99.90
16388;DHT22;8303;53.446;9.988;2023-03-23T09:22:53;12.60;99.90
16388;DHT22;8303;53.446;9.988;2023-03-23T09:25:22;12.60;99.90
16388;DHT22;8303;53.446;9.988;2023-03-23T09:27:52;12.50;99.90
16388;DHT22;8303;53.446;9.988;2023-03-23T09:30:22;12.50;99.90
16388;DHT22;8303;53.446;9.988;2023-03-23T09:32:52;12.40;99.90
16388;DHT22;8303;53.446;9.988;2023-03-23T09:35:19;12.40;99.90
16388;DHT22;8303;53.446;9.988;2023-03-23T09:37:49;12.50;99.90
16388;DHT22;8303;53.446;9.988;2023-03-23T09:40:20;12.60;99.90
16388;DHT22;8303;53.446;9.988;2023-03-23T09:43:04;12.70;99.90
16388;DHT22;8303;53.446;9.988;2023-03-23T09:45:39;12.70;99.90
16388;DHT22;8303;53.446;9.988;2023-03-23T09:48:23;12.80;99.90
16388;DHT22;8303;53.446;9.988;2023-03-23T09:50:58;12.80;99.90
16388;DHT22;8303;53.446;9.988;2023-03-23T09:53:30;12.70;99.90
16388;DHT22;8303;53.446;9.988;2023-03-23T09:56:03;12.80;99.90
16388;DHT22;8303;53.446;9.988;2023-03-23T09:58:37;13.00;99.90
16388;DHT22;8303;53.446;9.988;2023-03-23T10:01:08;13.10;99.90
16388;DHT22;8303;53.446;9.988;2023-03-23T10:03:40;13.10;99.90
16388;DHT22;8303;53.446;9.988;2023-03-23T10:06:10;13.00;99.90
16388;DHT22;8303;53.446;9.988;2023-03-23T10:08:44;13.10;99.90
16388;DHT22;8303;53.446;9.988;2023-03-23T10:11:18;13.20;99.90
16388;DHT22;8303;53.446;9.988;2023-03-23T10:16:40;13.10;99.90
16388;DHT22;8303;53.446;9.988;2023-03-23T10:19:11;13.30;99.90
16388;DHT22;8303;53.446;9.988;2023-03-23T10:21:41;13.20;99.90
16388;DHT22;8303;53.446;9.988;2023-03-23T10:24:14;13.00;99.90
16388;DHT22;8303;53.446;9.988;2023-03-23T10:26:48;12.90;99.90
16388;DHT22;8303;53.446;9.988;2023-03-23T10:29:24;13.10;99.90
16388;DHT22;8303;53.446;9.988;2023-03-23T10:31:57;13.10;99.90
16388;DHT22;8303;53.446;9.988;2023-03-23T10:34:28;13.00;99.90
16388;DHT22;8303;53.446;9.988;2023-03-23T10:37:03;13.10;99.90
16388;DHT22;8303;53.446;9.988;2023-03-23T10:39:37;13.30;99.90
16388;DHT22;8303;53.446;9.988;2023-03-23T10:42:08;13.40;99.90
16388;DHT22;8303;53.446;9.988;2023-03-23T10:44:35;13.60;99.90
16388;DHT22;8303;53.446;9.988;2023-03-23T10:47:05;13.70;99.90
16388;DHT22;8303;53.446;9.988;2023-03-23T10:49:36;13.60;99.90
16388;DHT22;8303;53.446;9.988;2023-03-23T10:52:16;13.50;99.90
16388;DHT22;8303;53.446;9.988;2023-03-23T10:54:50;13.50;99.90
16388;DHT22;8303;53.446;9.988;2023-03-23T10:57:23;13.90;99.90
16388;DHT22;8303;53.446;9.988;2023-03-23T10:59:58;14.10;99.90
16388;DHT22;8303;53.446;9.988;2023-03-23T11:02:27;14.40;92.70
16388;DHT22;8303;53.446;9.988;2023-03-23T11:04:57;14.50;63.90
16388;DHT22;8303;53.446;9.988;2023-03-23T11:07:28;14.30;98.20
16388;DHT22;8303;53.446;9.988;2023-03-23T11:09:57;14.50;82.00
16388;DHT22;8303;53.446;9.988;2023-03-23T11:12:26;14.40;97.70
16388;DHT22;8303;53.446;9.988;2023-03-23T11:15:04;14.20;82.30
16388;DHT22;8303;53.446;9.988;2023-03-23T11:17:31;14.20;99.90
16388;DHT22;8303;53.446;9.988;2023-03-23T11:19:58;14.30;97.20
16388;DHT22;8303;53.446;9.988;2023-03-23T11:22:26;14.20;99.90
16388;DHT22;8303;53.446;9.988;2023-03-23T11:24:55;13.90;99.90
16388;DHT22;8303;53.446;9.988;2023-03-23T11:27:26;13.80;99.90
16388;DHT22;8303;53.446;9.988;2023-03-23T11:29:55;14.10;99.90
16388;DHT22;8303;53.446;9.988;2023-03-23T11:32:25;14.30;99.90
16388;DHT22;8303;53.446;9.988;2023-03-23T11:34:55;14.40;81.90
16388;DHT22;8303;53.446;9.988;2023-03-23T11:37:29;14.50;85.40
16388;DHT22;8303;53.446;9.988;2023-03-23T11:39:59;14.50;34.90
16388;DHT22;8303;53.446;9.988;2023-03-23T11:42:36;14.50;88.20
16388;DHT22;8303;53.446;9.988;2023-03-23T11:45:15;14.50;91.00
16388;DHT22;8303;53.446;9.988;2023-03-23T11:47:49;14.60;99.90
16388;DHT22;8303;53.446;9.988;2023-03-23T11:50:20;14.90;61.10
16388;DHT22;8303;53.446;9.988;2023-03-23T11:52:52;14.80;97.00
16388;DHT22;8303;53.446;9.988;2023-03-23T11:55:25;14.60;89.30
16388;DHT22;8303;53.446;9.988;2023-03-23T11:57:55;14.20;99.90
16388;DHT22;8303;53.446;9.988;2023-03-23T12:00:23;14.10;99.90
16388;DHT22;8303;53.446;9.988;2023-03-23T12:03:11;13.90;99.90
16388;DHT22;8303;53.446;9.988;2023-03-23T12:05:45;13.80;99.90
16388;DHT22;8303;53.446;9.988;2023-03-23T12:08:37;13.90;99.90
16388;DHT22;8303;53.446;9.988;2023-03-23T12:11:13;13.90;99.90
16388;DHT22;8303;53.446;9.988;2023-03-23T12:13:56;13.90;99.90
16388;DHT22;8303;53.446;9.988;2023-03-23T12:16:35;13.80;99.90
16388;DHT22;8303;53.446;9.988;2023-03-23T12:19:10;13.60;99.90
16388;DHT22;8303;53.446;9.988;2023-03-23T12:21:44;13.40;99.90
16388;DHT22;8303;53.446;9.988;2023-03-23T12:24:24;13.40;99.90
16388;DHT22;8303;53.446;9.988;2023-03-23T12:26:59;13.30;99.90
16388;DHT22;8303;53.446;9.988;2023-03-23T12:29:49;13.20;99.90
16388;DHT22;8303;53.446;9.988;2023-03-23T12:32:33;13.30;99.90
16388;DHT22;8303;53.446;9.988;2023-03-23T12:35:10;13.60;99.90
16388;DHT22;8303;53.446;9.988;2023-03-23T12:37:46;13.80;99.90
16388;DHT22;8303;53.446;9.988;2023-03-23T12:40:39;13.70;99.90
16388;DHT22;8303;53.446;9.988;2023-03-23T12:43:13;14.20;99.90
16388;DHT22;8303;53.446;9.988;2023-03-23T12:46:01;14.20;99.90
16388;DHT22;8303;53.446;9.988;2023-03-23T12:48:33;14.20;99.90
16388;DHT22;8303;53.446;9.988;2023-03-23T12:51:11;14.20;99.90
16388;DHT22;8303;53.446;9.988;2023-03-23T12:53:46;14.30;99.90
16388;DHT22;8303;53.446;9.988;2023-03-23T12:56:16;14.40;99.90
16388;DHT22;8303;53.446;9.988;2023-03-23T12:58:46;14.30;99.90
16388;DHT22;8303;53.446;9.988;2023-03-23T13:01:17;14.20;66.60
16388;DHT22;8303;53.446;9.988;2023-03-23T13:03:51;14.50;86.10
16388;DHT22;8303;53.446;9.988;2023-03-23T13:06:23;14.70;97.90
16388;DHT22;8303;53.446;9.988;2023-03-23T13:08:55;15.00;32.00
16388;DHT22;8303;53.446;9.988;2023-03-23T13:11:28;15.00;20.90
16388;DHT22;8303;53.446;9.988;2023-03-23T13:14:03;14.70;26.20
16388;DHT22;8303;53.446;9.988;2023-03-23T13:16:39;14.60;12.10
16388;DHT22;8303;53.446;9.988;2023-03-23T13:19:13;14.90;21.70
16388;DHT22;8303;53.446;9.988;2023-03-23T13:21:46;15.00;1.00
16388;DHT22;8303;53.446;9.988;2023-03-23T13:24:20;15.00;1.00
16388;DHT22;8303;53.446;9.988;2023-03-23T13:26:49;14.80;1.00
16388;DHT22;8303;53.446;9.988;2023-03-23T13:29:18;15.00;1.00
16388;DHT22;8303;53.446;9.988;2023-03-23T13:31:47;14.90;1.00
16388;DHT22;8303;53.446;9.988;2023-03-23T13:34:17;14.90;1.00
16388;DHT22;8303;53.446;9.988;2023-03-23T13:36:53;15.20;1.00
16388;DHT22;8303;53.446;9.988;2023-03-23T13:39:23;15.00;1.00
16388;DHT22;8303;53.446;9.988;2023-03-23T13:42:02;15.00;1.00
16388;DHT22;8303;53.446;9.988;2023-03-23T13:44:41;15.60;1.00
16388;DHT22;8303;53.446;9.988;2023-03-23T13:47:25;15.80;1.00
16388;DHT22;8303;53.446;9.988;2023-03-23T13:49:55;16.20;1.00
16388;DHT22;8303;53.446;9.988;2023-03-23T13:52:24;16.10;1.00
16388;DHT22;8303;53.446;9.988;2023-03-23T13:55:18;15.90;1.00
16388;DHT22;8303;53.446;9.988;2023-03-23T13:57:51;16.30;1.00
16388;DHT22;8303;53.446;9.988;2023-03-23T14:00:46;16.80;1.00
16388;DHT22;8303;53.446;9.988;2023-03-23T14:03:18;16.10;1.00
16388;DHT22;8303;53.446;9.988;2023-03-23T14:05:48;15.60;1.00
16388;DHT22;8303;53.446;9.988;2023-03-23T14:08:24;15.40;1.00
16388;DHT22;8303;53.446;9.988;2023-03-23T14:10:53;15.00;1.00
16388;DHT22;8303;53.446;9.988;2023-03-23T14:13:30;14.50;1.00
16388;DHT22;8303;53.446;9.988;2023-03-23T14:15:59;12.80;11.80
16388;DHT22;8303;53.446;9.988;2023-03-23T14:18:32;10.50;99.90
16388;DHT22;8303;53.446;9.988;2023-03-23T14:21:01;9.70;99.90
16388;DHT22;8303;53.446;9.988;2023-03-23T14:23:31;9.70;99.90
16388;DHT22;8303;53.446;9.988;2023-03-23T14:26:01;9.80;99.90
16388;DHT22;8303;53.446;9.988;2023-03-23T14:28:37;10.30;99.90
16388;DHT22;8303;53.446;9.988;2023-03-23T14:31:04;10.80;99.90
16388;DHT22;8303;53.446;9.988;2023-03-23T14:33:33;11.30;99.90
16388;DHT22;8303;53.446;9.988;2023-03-23T14:36:00;11.10;99.90
16388;DHT22;8303;53.446;9.988;2023-03-23T14:38:27;10.90;99.90
16388;DHT22;8303;53.446;9.988;2023-03-23T14:41:01;10.70;99.90
16388;DHT22;8303;53.446;9.988;2023-03-23T14:43:29;10.70;99.90
16388;DHT22;8303;53.446;9.988;2023-03-23T14:45:59;10.60;99.90
16388;DHT22;8303;53.446;9.988;2023-03-23T14:48:27;10.90;99.90
16388;DHT22;8303;53.446;9.988;2023-03-23T14:50:58;11.30;99.90
16388;DHT22;8303;53.446;9.988;2023-03-23T14:53:31;11.30;99.90
16388;DHT22;8303;53.446;9.988;2023-03-23T14:56:01;11.20;99.90
16388;DHT22;8303;53.446;9.988;2023-03-23T14:58:30;11.20;99.90
16388;DHT22;8303;53.446;9.988;2023-03-23T15:00:59;11.20;99.90
16388;DHT22;8303;53.446;9.988;2023-03-23T15:03:27;11.50;99.90
16388;DHT22;8303;53.446;9.988;2023-03-23T15:05:59;11.70;99.90
16388;DHT22;8303;53.446;9.988;2023-03-23T15:08:30;11.90;99.90
16388;DHT22;8303;53.446;9.988;2023-03-23T15:11:10;11.90;99.90
16388;DHT22;8303;53.446;9.988;2023-03-23T15:13:43;11.90;99.90
16388;DHT22;8303;53.446;9.988;2023-03-23T15:16:14;11.90;99.90
16388;DHT22;8303;53.446;9.988;2023-03-23T15:18:49;11.70;99.90
16388;DHT22;8303;53.446;9.988;2023-03-23T15:21:23;11.70;1.00
16388;DHT22;8303;53.446;9.988;2023-03-23T15:23:50;11.60;1.00
16388;DHT22;8303;53.446;9.988;2023-03-23T15:26:27;11.60;1.00
16388;DHT22;8303;53.446;9.988;2023-03-23T15:29:14;11.50;99.90
16388;DHT22;8303;53.446;9.988;2023-03-23T15:31:43;11.50;99.90
16388;DHT22;8303;53.446;9.988;2023-03-23T15:34:24;11.60;99.90
16388;DHT22;8303;53.446;9.988;2023-03-23T15:37:03;11.60;99.90
16388;DHT22;8303;53.446;9.988;2023-03-23T15:39:32;11.60;99.90
16388;DHT22;8303;53.446;9.988;2023-03-23T15:41:59;12.30;99.90
16388;DHT22;8303;53.446;9.988;2023-03-23T15:44:31;12.70;99.90
16388;DHT22;8303;53.446;9.988;2023-03-23T15:47:13;12.90;37.80
16388;DHT22;8303;53.446;9.988;2023-03-23T15:49:41;13.30;1.00
16388;DHT22;8303;53.446;9.988;2023-03-23T15:52:11;13.30;1.00
16388;DHT22;8303;53.446;9.988;2023-03-23T15:54:45;12.90;1.00
16388;DHT22;8303;53.446;9.988;2023-03-23T15:57:12;12.50;1.00
16388;DHT22;8303;53.446;9.988;2023-03-23T15:59:39;12.20;14.50
16388;DHT22;8303;53.446;9.988;2023-03-23T16:02:08;11.90;15.20
16388;DHT22;8303;53.446;9.988;2023-03-23T16:04:37;11.80;27.50
16388;DHT22;8303;53.446;9.988;2023-03-23T16:07:04;11.70;44.20
16388;DHT22;8303;53.446;9.988;2023-03-23T16:09:33;11.70;93.30
16388;DHT22;8303;53.446;9.988;2023-03-23T16:12:00;11.60;96.70
16388;DHT22;8303;53.446;9.988;2023-03-23T16:14:27;11.60;99.10
16388;DHT22;8303;53.446;9.988;2023-03-23T16:16:54;11.50;99.90
16388;DHT22;8303;53.446;9.988;2023-03-23T16:19:20;11.50;99.90
16388;DHT22;8303;53.446;9.988;2023-03-23T16:21:48;11.50;99.90
16388;DHT22;8303;53.446;9.988;2023-03-23T16:24:15;11.40;99.90
16388;DHT22;8303;53.446;9.988;2023-03-23T16:26:44;11.40;99.90
16388;DHT22;8303;53.446;9.988;2023-03-23T16:29:12;11.30;99.90
16388;DHT22;8303;53.446;9.988;2023-03-23T16:31:40;11.00;99.90
16388;DHT22;8303;53.446;9.988;2023-03-23T16:34:07;10.60;99.90
16388;DHT22;8303;53.446;9.988;2023-03-23T16:36:34;10.40;99.90
16388;DHT22;8303;53.446;9.988;2023-03-23T16:39:01;10.30;1.00
16388;DHT22;8303;53.446;9.988;2023-03-23T16:41:28;10.20;1.00
16388;DHT22;8303;53.446;9.988;2023-03-23T16:43:56;10.20;1.00
16388;DHT22;8303;53.446;9.988;2023-03-23T16:46:24;10.40;1.00
16388;DHT22;8303;53.446;9.988;2023-03-23T16:48:50;10.70;1.00
16388;DHT22;8303;53.446;9.988;2023-03-23T16:51:17;11.10;1.00
16388;DHT22;8303;53.446;9.988;2023-03-23T16:53:44;11.10;99.90
16388;DHT22;8303;53.446;9.988;2023-03-23T16:56:11;10.80;99.90
16388;DHT22;8303;53.446;9.988;2023-03-23T16:58:39;10.70;1.00
16388;DHT22;8303;53.446;9.988;2023-03-23T17:01:08;10.50;1.00
16388;DHT22;8303;53.446;9.988;2023-03-23T17:03:35;10.30;1.00
16388;DHT22;8303;53.446;9.988;2023-03-23T17:06:02;10.30;1.00
16388;DHT22;8303;53.446;9.988;2023-03-23T17:08:30;10.20;1.00
16388;DHT22;8303;53.446;9.988;2023-03-23T17:10:57;10.10;1.00
16388;DHT22;8303;53.446;9.988;2023-03-23T17:13:24;10.10;1.00
16388;DHT22;8303;53.446;9.988;2023-03-23T17:15:53;10.10;1.00
16388;DHT22;8303;53.446;9.988;2023-03-23T17:18:22;10.10;1.00
16388;DHT22;8303;53.446;9.988;2023-03-23T17:20:51;10.00;1.00
16388;DHT22;8303;53.446;9.988;2023-03-23T17:23:18;10.10;1.00
16388;DHT22;8303;53.446;9.988;2023-03-23T17:25:46;10.00;1.00
16388;DHT22;8303;53.446;9.988;2023-03-23T17:28:13;9.90;1.00
16388;DHT22;8303;53.446;9.988;2023-03-23T17:30:42;9.90;1.00
16388;DHT22;8303;53.446;9.988;2023-03-23T17:33:10;9.90;1.00
16388;DHT22;8303;53.446;9.988;2023-03-23T17:35:39;9.90;1.00
16388;DHT22;8303;53.446;9.988;2023-03-23T17:38:06;9.90;1.00
16388;DHT22;8303;53.446;9.988;2023-03-23T17:40:32;9.80;1.00
16388;DHT22;8303;53.446;9.988;2023-03-23T17:42:59;9.80;1.00
16388;DHT22;8303;53.446;9.988;2023-03-23T17:45:26;9.80;1.00
16388;DHT22;8303;53.446;9.988;2023-03-23T17:47:53;9.70;1.00
16388;DHT22;8303;53.446;9.988;2023-03-23T17:50:20;9.60;1.00
16388;DHT22;8303;53.446;9.988;2023-03-23T17:52:49;9.60;1.00
16388;DHT22;8303;53.446;9.988;2023-03-23T17:55:16;9.50;1.00
16388;DHT22;8303;53.446;9.988;2023-03-23T17:57:42;9.50;1.00
16388;DHT22;8303;53.446;9.988;2023-03-23T18:00:10;9.40;1.00
16388;DHT22;8303;53.446;9.988;2023-03-23T18:02:37;9.40;1.00
16388;DHT22;8303;53.446;9.988;2023-03-23T18:05:05;9.30;1.00
16388;DHT22;8303;53.446;9.988;2023-03-23T18:07:33;9.30;1.00
16388;DHT22;8303;53.446;9.988;2023-03-23T18:10:02;9.20;1.00
16388;DHT22;8303;53.446;9.988;2023-03-23T18:12:36;9.10;1.00
16388;DHT22;8303;53.446;9.988;2023-03-23T18:15:06;9.10;1.00
16388;DHT22;8303;53.446;9.988;2023-03-23T18:17:33;9.00;1.00
16388;DHT22;8303;53.446;9.988;2023-03-23T18:20:00;9.00;1.00
16388;DHT22;8303;53.446;9.988;2023-03-23T18:22:27;9.00;1.00
16388;DHT22;8303;53.446;9.988;2023-03-23T18:24:54;8.90;1.00
16388;DHT22;8303;53.446;9.988;2023-03-23T18:27:24;8.90;1.00
16388;DHT22;8303;53.446;9.988;2023-03-23T18:29:51;8.90;1.00
16388;DHT22;8303;53.446;9.988;2023-03-23T18:32:18;8.90;1.00
16388;DHT22;8303;53.446;9.988;2023-03-23T18:34:45;9.00;1.00
16388;DHT22;8303;53.446;9.988;2023-03-23T18:37:13;9.00;1.00
16388;DHT22;8303;53.446;9.988;2023-03-23T18:39:40;8.90;1.00
16388;DHT22;8303;53.446;9.988;2023-03-23T18:42:07;9.00;1.00
16388;DHT22;8303;53.446;9.988;2023-03-23T18:44:36;8.90;1.00
16388;DHT22;8303;53.446;9.988;2023-03-23T18:47:03;8.80;1.00
16388;DHT22;8303;53.446;9.988;2023-03-23T18:49:30;8.90;1.00
16388;DHT22;8303;53.446;9.988;2023-03-23T18:51:58;8.80;1.00
16388;DHT22;8303;53.446;9.988;2023-03-23T18:54:25;8.80;1.00
16388;DHT22;8303;53.446;9.988;2023-03-23T18:56:52;8.80;1.00
16388;DHT22;8303;53.446;9.988;2023-03-23T18:59:19;8.80;1.00
16388;DHT22;8303;53.446;9.988;2023-03-23T19:01:50;8.80;1.00
16388;DHT22;8303;53.446;9.988;2023-03-23T19:04:17;8.80;1.00
16388;DHT22;8303;53.446;9.988;2023-03-23T19:06:47;8.80;1.00
16388;DHT22;8303;53.446;9.988;2023-03-23T19:09:15;8.80;1.00
16388;DHT22;8303;53.446;9.988;2023-03-23T19:11:43;8.90;1.00
16388;DHT22;8303;53.446;9.988;2023-03-23T19:14:11;8.90;1.00
16388;DHT22;8303;53.446;9.988;2023-03-23T19:16:39;9.00;1.00
16388;DHT22;8303;53.446;9.988;2023-03-23T19:19:07;9.00;1.00
16388;DHT22;8303;53.446;9.988;2023-03-23T19:21:35;9.00;1.00
16388;DHT22;8303;53.446;9.988;2023-03-23T19:24:02;9.00;1.00
16388;DHT22;8303;53.446;9.988;2023-03-23T19:26:31;9.10;1.00
16388;DHT22;8303;53.446;9.988;2023-03-23T19:28:58;9.00;1.00
16388;DHT22;8303;53.446;9.988;2023-03-23T19:31:25;9.00;1.00
16388;DHT22;8303;53.446;9.988;2023-03-23T19:33:53;9.10;1.00
16388;DHT22;8303;53.446;9.988;2023-03-23T19:36:23;9.10;1.00
16388;DHT22;8303;53.446;9.988;2023-03-23T19:38:50;9.20;1.00
16388;DHT22;8303;53.446;9.988;2023-03-23T19:41:19;9.20;1.00
16388;DHT22;8303;53.446;9.988;2023-03-23T19:43:46;9.30;1.00
16388;DHT22;8303;53.446;9.988;2023-03-23T19:46:13;9.30;1.00
16388;DHT22;8303;53.446;9.988;2023-03-23T19:48:40;9.40;1.00
16388;DHT22;8303;53.446;9.988;2023-03-23T19:51:10;9.30;1.00
16388;DHT22;8303;53.446;9.988;2023-03-23T19:53:39;9.30;1.00
16388;DHT22;8303;53.446;9.988;2023-03-23T19:56:10;9.30;1.00
16388;DHT22;8303;53.446;9.988;2023-03-23T19:58:37;9.20;1.00
16388;DHT22;8303;53.446;9.988;2023-03-23T20:01:05;9.20;1.00
16388;DHT22;8303;53.446;9.988;2023-03-23T20:03:33;9.30;1.00
16388;DHT22;8303;53.446;9.988;2023-03-23T20:06:01;9.30;1.00
16388;DHT22;8303;53.446;9.988;2023-03-23T20:08:28;9.20;1.00
16388;DHT22;8303;53.446;9.988;2023-03-23T20:11:03;9.20;1.00
16388;DHT22;8303;53.446;9.988;2023-03-23T20:13:31;9.20;1.00
16388;DHT22;8303;53.446;9.988;2023-03-23T20:15:58;9.20;1.00
16388;DHT22;8303;53.446;9.988;2023-03-23T20:18:25;9.20;1.00
16388;DHT22;8303;53.446;9.988;2023-03-23T20:20:59;9.20;1.00
16388;DHT22;8303;53.446;9.988;2023-03-23T20:23:26;9.20;1.00
16388;DHT22;8303;53.446;9.988;2023-03-23T20:25:57;9.10;1.00
16388;DHT22;8303;53.446;9.988;2023-03-23T20:28:26;9.10;1.00
16388;DHT22;8303;53.446;9.988;2023-03-23T20:31:01;9.10;1.00
16388;DHT22;8303;53.446;9.988;2023-03-23T20:33:28;9.00;1.00
16388;DHT22;8303;53.446;9.988;2023-03-23T20:35:56;9.00;1.00
16388;DHT22;8303;53.446;9.988;2023-03-23T20:38:25;8.90;1.00
16388;DHT22;8303;53.446;9.988;2023-03-23T20:40:53;8.90;1.00
16388;DHT22;8303;53.446;9.988;2023-03-23T20:43:22;8.90;1.00
16388;DHT22;8303;53.446;9.988;2023-03-23T20:45:55;8.90;11.50
16388;DHT22;8303;53.446;9.988;2023-03-23T20:48:23;9.00;21.70
16388;DHT22;8303;53.446;9.988;2023-03-23T20:50:52;9.00;27.20
16388;DHT22;8303;53.446;9.988;2023-03-23T20:53:19;9.00;31.80
16388;DHT22;8303;53.446;9.988;2023-03-23T20:55:46;9.00;35.50
16388;DHT22;8303;53.446;9.988;2023-03-23T20:58:13;9.00;44.10
16388;DHT22;8303;53.446;9.988;2023-03-23T21:00:41;8.90;45.10
16388;DHT22;8303;53.446;9.988;2023-03-23T21:03:10;8.90;58.50
16388;DHT22;8303;53.446;9.988;2023-03-23T21:05:38;9.00;88.00
16388;DHT22;8303;53.446;9.988;2023-03-23T21:08:06;9.00;82.10
16388;DHT22;8303;53.446;9.988;2023-03-23T21:10:33;9.00;91.60
16388;DHT22;8303;53.446;9.988;2023-03-23T21:13:00;9.10;88.80
16388;DHT22;8303;53.446;9.988;2023-03-23T21:15:27;9.10;91.30
16388;DHT22;8303;53.446;9.988;2023-03-23T21:17:55;9.10;77.10
16388;DHT22;8303;53.446;9.988;2023-03-23T21:20:23;9.10;75.30
16388;DHT22;8303;53.446;9.988;2023-03-23T21:22:50;9.10;85.20
16388;DHT22;8303;53.446;9.988;2023-03-23T21:25:17;9.10;91.10
16388;DHT22;8303;53.446;9.988;2023-03-23T21:27:46;9.10;94.00
